sensor_id;sensor_type;location;lat;lon;timestamp;temperature;humidity
20370;DHT22;10344;47.592;9.600;2022-07-29T00:01:29;18.80;99.90
20370;DHT22;10344;47.592;9.600;2022-07-29T00:03:54;18.70;99.90
20370;DHT22;10344;47.592;9.600;2022-07-29T00:06:20;18.70;99.90
20370;DHT22;10344;47.592;9.600;2022-07-29T00:08:46;18.60;99.90
20370;DHT22;10344;47.592;9.600;2022-07-29T00:11:12;18.60;99.90
20370;DHT22;10344;47.592;9.600;2022-07-29T00:13:37;18.60;99.90
20370;DHT22;10344;47.592;9.600;2022-07-29T00:16:05;18.60;99.90
20370;DHT22;10344;47.592;9.600;2022-07-29T00:18:31;18.60;99.90
20370;DHT22;10344;47.592;9.600;2022-07-29T00:20:57;18.50;99.90
20370;DHT22;10344;47.592;9.600;2022-07-29T00:23:22;18.50;99.90
20370;DHT22;10344;47.592;9.600;2022-07-29T00:25:48;18.40;99.90
20370;DHT22;10344;47.592;9.600;2022-07-29T00:28:13;18.40;99.90
20370;DHT22;10344;47.592;9.600;2022-07-29T00:30:39;18.40;99.90
20370;DHT22;10344;47.592;9.600;2022-07-29T00:33:08;18.30;99.90
20370;DHT22;10344;47.592;9.600;2022-07-29T00:35:33;18.40;99.90
20370;DHT22;10344;47.592;9.600;2022-07-29T00:38:15;18.40;99.90
20370;DHT22;10344;47.592;9.600;2022-07-29T00:40:41;18.30;99.90
20370;DHT22;10344;47.592;9.600;2022-07-29T00:43:07;18.40;99.90
20370;DHT22;10344;47.592;9.600;2022-07-29T00:45:32;18.30;99.90
20370;DHT22;10344;47.592;9.600;2022-07-29T00:47:58;18.30;99.90
20370;DHT22;10344;47.592;9.600;2022-07-29T00:50:23;18.30;99.90
20370;DHT22;10344;47.592;9.600;2022-07-29T00:52:51;18.20;99.90
20370;DHT22;10344;47.592;9.600;2022-07-29T00:55:17;18.30;99.90
20370;DHT22;10344;47.592;9.600;2022-07-29T00:57:43;18.20;99.90
20370;DHT22;10344;47.592;9.600;2022-07-29T01:00:10;18.20;99.90
20370;DHT22;10344;47.592;9.600;2022-07-29T01:02:37;18.20;99.90
20370;DHT22;10344;47.592;9.600;2022-07-29T01:05:07;18.20;99.90
20370;DHT22;10344;47.592;9.600;2022-07-29T01:10:53;18.40;99.90
20370;DHT22;10344;47.592;9.600;2022-07-29T01:13:20;18.40;99.90
20370;DHT22;10344;47.592;9.600;2022-07-29T01:15:51;18.50;99.90
20370;DHT22;10344;47.592;9.600;2022-07-29T01:18:22;18.50;99.90
20370;DHT22;10344;47.592;9.600;2022-07-29T01:23:19;18.60;99.90
20370;DHT22;10344;47.592;9.600;2022-07-29T01:37:26;18.50;99.90
20370;DHT22;10344;47.592;9.600;2022-07-29T01:39:55;18.50;99.90
20370;DHT22;10344;47.592;9.600;2022-07-29T01:42:31;18.40;99.90
20370;DHT22;10344;47.592;9.600;2022-07-29T01:45:00;18.30;99.90
20370;DHT22;10344;47.592;9.600;2022-07-29T01:47:31;18.30;99.90
20370;DHT22;10344;47.592;9.600;2022-07-29T01:49:58;18.30;99.90
20370;DHT22;10344;47.592;9.600;2022-07-29T01:52:26;18.20;99.90
20370;DHT22;10344;47.592;9.600;2022-07-29T01:54:54;18.20;99.90
20370;DHT22;10344;47.592;9.600;2022-07-29T01:57:21;18.20;99.90
20370;DHT22;10344;47.592;9.600;2022-07-29T01:59:50;18.10;99.90
20370;DHT22;10344;47.592;9.600;2022-07-29T02:02:16;18.00;99.90
20370;DHT22;10344;47.592;9.600;2022-07-29T02:04:43;18.00;99.90
20370;DHT22;10344;47.592;9.600;2022-07-29T02:07:10;17.90;99.90
20370;DHT22;10344;47.592;9.600;2022-07-29T02:09:38;17.90;99.90
20370;DHT22;10344;47.592;9.600;2022-07-29T02:12:04;17.90;99.90
20370;DHT22;10344;47.592;9.600;2022-07-29T02:14:33;17.80;99.90
20370;DHT22;10344;47.592;9.600;2022-07-29T02:16:59;17.80;99.90
20370;DHT22;10344;47.592;9.600;2022-07-29T02:19:26;17.80;99.90
20370;DHT22;10344;47.592;9.600;2022-07-29T02:21:52;17.80;99.90
20370;DHT22;10344;47.592;9.600;2022-07-29T02:24:18;17.70;99.90
20370;DHT22;10344;47.592;9.600;2022-07-29T02:26:45;17.70;99.90
20370;DHT22;10344;47.592;9.600;2022-07-29T02:29:12;17.70;99.90
20370;DHT22;10344;47.592;9.600;2022-07-29T02:31:40;17.70;99.90
20370;DHT22;10344;47.592;9.600;2022-07-29T02:34:08;17.70;99.90
20370;DHT22;10344;47.592;9.600;2022-07-29T02:36:35;17.60;99.90
20370;DHT22;10344;47.592;9.600;2022-07-29T02:39:02;17.60;99.90
20370;DHT22;10344;47.592;9.600;2022-07-29T02:41:47;17.60;99.90
20370;DHT22;10344;47.592;9.600;2022-07-29T02:44:15;17.60;99.90
20370;DHT22;10344;47.592;9.600;2022-07-29T02:46:54;17.60;99.90
20370;DHT22;10344;47.592;9.600;2022-07-29T02:52:12;17.50;99.90
20370;DHT22;10344;47.592;9.600;2022-07-29T02:54:42;17.50;99.90
20370;DHT22;10344;47.592;9.600;2022-07-29T02:57:18;17.40;99.90
20370;DHT22;10344;47.592;9.600;2022-07-29T02:59:50;17.40;99.90
20370;DHT22;10344;47.592;9.600;2022-07-29T03:02:18;17.40;99.90
20370;DHT22;10344;47.592;9.600;2022-07-29T03:04:43;17.40;99.90
20370;DHT22;10344;47.592;9.600;2022-07-29T03:07:10;17.40;99.90
20370;DHT22;10344;47.592;9.600;2022-07-29T03:09:36;17.40;99.90
20370;DHT22;10344;47.592;9.600;2022-07-29T03:12:03;17.40;99.90
20370;DHT22;10344;47.592;9.600;2022-07-29T03:14:29;17.40;99.90
20370;DHT22;10344;47.592;9.600;2022-07-29T03:16:55;17.40;99.90
20370;DHT22;10344;47.592;9.600;2022-07-29T03:19:21;17.40;99.90
20370;DHT22;10344;47.592;9.600;2022-07-29T03:21:47;17.40;99.90
20370;DHT22;10344;47.592;9.600;2022-07-29T03:27:12;17.40;99.90
20370;DHT22;10344;47.592;9.600;2022-07-29T03:29:37;17.40;99.90
20370;DHT22;10344;47.592;9.600;2022-07-29T03:32:03;17.40;99.90
20370;DHT22;10344;47.592;9.600;2022-07-29T03:34:29;17.40;99.90
20370;DHT22;10344;47.592;9.600;2022-07-29T03:36:55;17.50;99.90
20370;DHT22;10344;47.592;9.600;2022-07-29T03:39:24;17.50;99.90
20370;DHT22;10344;47.592;9.600;2022-07-29T03:41:51;17.50;99.90
20370;DHT22;10344;47.592;9.600;2022-07-29T03:44:18;17.50;99.90
20370;DHT22;10344;47.592;9.600;2022-07-29T03:46:44;17.50;99.90
20370;DHT22;10344;47.592;9.600;2022-07-29T03:49:11;17.60;99.90
20370;DHT22;10344;47.592;9.600;2022-07-29T03:51:38;17.60;99.90
20370;DHT22;10344;47.592;9.600;2022-07-29T03:54:04;17.60;99.90
20370;DHT22;10344;47.592;9.600;2022-07-29T03:56:30;17.60;99.90
20370;DHT22;10344;47.592;9.600;2022-07-29T03:58:57;17.60;99.90
20370;DHT22;10344;47.592;9.600;2022-07-29T04:01:23;17.60;99.90
20370;DHT22;10344;47.592;9.600;2022-07-29T04:03:51;17.70;99.90
20370;DHT22;10344;47.592;9.600;2022-07-29T04:06:16;17.80;99.90
20370;DHT22;10344;47.592;9.600;2022-07-29T04:08:42;17.80;99.90
20370;DHT22;10344;47.592;9.600;2022-07-29T04:11:07;17.90;99.90
20370;DHT22;10344;47.592;9.600;2022-07-29T04:13:33;17.90;99.90
20370;DHT22;10344;47.592;9.600;2022-07-29T04:15:59;18.00;99.90
20370;DHT22;10344;47.592;9.600;2022-07-29T04:18:24;18.00;99.90
20370;DHT22;10344;47.592;9.600;2022-07-29T04:20:50;18.00;99.90
20370;DHT22;10344;47.592;9.600;2022-07-29T04:23:16;18.10;99.90
20370;DHT22;10344;47.592;9.600;2022-07-29T04:25:44;18.10;99.90
20370;DHT22;10344;47.592;9.600;2022-07-29T04:28:11;18.20;99.90
20370;DHT22;10344;47.592;9.600;2022-07-29T04:30:37;18.20;99.90
20370;DHT22;10344;47.592;9.600;2022-07-29T04:33:05;18.20;99.90
20370;DHT22;10344;47.592;9.600;2022-07-29T04:35:33;18.30;99.90
20370;DHT22;10344;47.592;9.600;2022-07-29T04:38:00;18.30;99.90
20370;DHT22;10344;47.592;9.600;2022-07-29T04:40:25;18.20;99.90
20370;DHT22;10344;47.592;9.600;2022-07-29T04:42:51;18.20;99.90
20370;DHT22;10344;47.592;9.600;2022-07-29T04:45:17;18.20;99.90
20370;DHT22;10344;47.592;9.600;2022-07-29T04:47:45;18.20;99.90
20370;DHT22;10344;47.592;9.600;2022-07-29T04:50:10;18.20;99.90
20370;DHT22;10344;47.592;9.600;2022-07-29T04:52:36;18.20;99.90
20370;DHT22;10344;47.592;9.600;2022-07-29T04:55:05;18.30;99.90
20370;DHT22;10344;47.592;9.600;2022-07-29T04:57:31;18.30;99.90
20370;DHT22;10344;47.592;9.600;2022-07-29T04:59:56;18.30;99.90
20370;DHT22;10344;47.592;9.600;2022-07-29T05:02:22;18.40;99.90
20370;DHT22;10344;47.592;9.600;2022-07-29T05:04:48;18.40;99.90
20370;DHT22;10344;47.592;9.600;2022-07-29T05:07:14;18.50;99.90
20370;DHT22;10344;47.592;9.600;2022-07-29T05:09:40;18.60;99.90
20370;DHT22;10344;47.592;9.600;2022-07-29T05:12:06;18.50;99.90
20370;DHT22;10344;47.592;9.600;2022-07-29T05:14:32;18.60;99.90
20370;DHT22;10344;47.592;9.600;2022-07-29T05:16:58;18.60;99.90
20370;DHT22;10344;47.592;9.600;2022-07-29T05:19:26;18.50;99.90
20370;DHT22;10344;47.592;9.600;2022-07-29T05:21:51;18.60;99.90
20370;DHT22;10344;47.592;9.600;2022-07-29T05:24:17;18.50;99.90
20370;DHT22;10344;47.592;9.600;2022-07-29T05:26:43;18.70;99.90
20370;DHT22;10344;47.592;9.600;2022-07-29T05:29:09;18.70;99.90
20370;DHT22;10344;47.592;9.600;2022-07-29T05:31:34;18.80;99.90
20370;DHT22;10344;47.592;9.600;2022-07-29T05:34:00;18.80;99.90
20370;DHT22;10344;47.592;9.600;2022-07-29T05:36:26;18.90;99.90
20370;DHT22;10344;47.592;9.600;2022-07-29T05:38:52;18.90;99.90
20370;DHT22;10344;47.592;9.600;2022-07-29T05:41:18;18.90;99.90
20370;DHT22;10344;47.592;9.600;2022-07-29T05:43:44;18.90;99.90
20370;DHT22;10344;47.592;9.600;2022-07-29T05:46:10;18.90;99.90
20370;DHT22;10344;47.592;9.600;2022-07-29T05:48:41;18.90;99.90
20370;DHT22;10344;47.592;9.600;2022-07-29T05:51:07;18.90;99.90
20370;DHT22;10344;47.592;9.600;2022-07-29T05:53:33;19.00;99.90
20370;DHT22;10344;47.592;9.600;2022-07-29T05:56:03;19.00;99.90
20370;DHT22;10344;47.592;9.600;2022-07-29T05:58:28;19.00;99.90
20370;DHT22;10344;47.592;9.600;2022-07-29T06:00:54;19.00;99.90
20370;DHT22;10344;47.592;9.600;2022-07-29T06:03:29;18.90;99.90
20370;DHT22;10344;47.592;9.600;2022-07-29T06:05:55;18.90;99.90
20370;DHT22;10344;47.592;9.600;2022-07-29T06:08:21;19.00;99.90
20370;DHT22;10344;47.592;9.600;2022-07-29T06:10:47;19.00;99.90
20370;DHT22;10344;47.592;9.600;2022-07-29T06:13:13;19.00;99.90
20370;DHT22;10344;47.592;9.600;2022-07-29T06:15:41;19.10;99.90
20370;DHT22;10344;47.592;9.600;2022-07-29T06:18:07;19.10;99.90
20370;DHT22;10344;47.592;9.600;2022-07-29T06:20:34;19.10;99.90
20370;DHT22;10344;47.592;9.600;2022-07-29T06:23:00;19.10;99.90
20370;DHT22;10344;47.592;9.600;2022-07-29T06:25:27;19.10;99.90
20370;DHT22;10344;47.592;9.600;2022-07-29T06:27:56;19.10;99.90
20370;DHT22;10344;47.592;9.600;2022-07-29T06:30:21;19.00;99.90
20370;DHT22;10344;47.592;9.600;2022-07-29T06:32:47;19.00;99.90
20370;DHT22;10344;47.592;9.600;2022-07-29T06:35:13;19.00;99.90
20370;DHT22;10344;47.592;9.600;2022-07-29T06:37:39;18.90;99.90
20370;DHT22;10344;47.592;9.600;2022-07-29T06:40:05;18.90;99.90
20370;DHT22;10344;47.592;9.600;2022-07-29T06:42:49;19.00;99.90
20370;DHT22;10344;47.592;9.600;2022-07-29T06:45:14;19.00;99.90
20370;DHT22;10344;47.592;9.600;2022-07-29T06:47:43;19.10;99.90
20370;DHT22;10344;47.592;9.600;2022-07-29T06:50:09;19.20;99.90
20370;DHT22;10344;47.592;9.600;2022-07-29T06:52:38;19.40;99.90
20370;DHT22;10344;47.592;9.600;2022-07-29T06:55:04;19.70;99.90
20370;DHT22;10344;47.592;9.600;2022-07-29T06:57:30;19.90;99.90
20370;DHT22;10344;47.592;9.600;2022-07-29T06:59:59;20.30;99.90
20370;DHT22;10344;47.592;9.600;2022-07-29T07:02:27;20.60;99.90
20370;DHT22;10344;47.592;9.600;2022-07-29T07:04:52;20.80;99.90
20370;DHT22;10344;47.592;9.600;2022-07-29T07:07:18;20.90;99.90
20370;DHT22;10344;47.592;9.600;2022-07-29T07:09:44;20.90;99.90
20370;DHT22;10344;47.592;9.600;2022-07-29T07:12:09;21.00;99.90
20370;DHT22;10344;47.592;9.600;2022-07-29T07:14:35;21.20;99.90
20370;DHT22;10344;47.592;9.600;2022-07-29T07:17:01;21.50;99.90
20370;DHT22;10344;47.592;9.600;2022-07-29T07:19:29;22.00;99.90
20370;DHT22;10344;47.592;9.600;2022-07-29T07:21:55;22.60;99.90
20370;DHT22;10344;47.592;9.600;2022-07-29T07:24:20;23.00;99.90
20370;DHT22;10344;47.592;9.600;2022-07-29T07:26:46;23.20;99.90
20370;DHT22;10344;47.592;9.600;2022-07-29T07:29:12;23.90;99.90
20370;DHT22;10344;47.592;9.600;2022-07-29T07:31:39;24.30;99.90
20370;DHT22;10344;47.592;9.600;2022-07-29T07:34:05;24.40;99.90
20370;DHT22;10344;47.592;9.600;2022-07-29T07:36:30;24.70;99.90
20370;DHT22;10344;47.592;9.600;2022-07-29T07:38:56;24.70;99.90
20370;DHT22;10344;47.592;9.600;2022-07-29T07:41:22;24.20;99.90
20370;DHT22;10344;47.592;9.600;2022-07-29T07:43:48;24.10;99.90
20370;DHT22;10344;47.592;9.600;2022-07-29T07:46:14;24.20;99.90
20370;DHT22;10344;47.592;9.600;2022-07-29T07:48:39;24.20;99.90
20370;DHT22;10344;47.592;9.600;2022-07-29T07:51:05;24.40;99.90
20370;DHT22;10344;47.592;9.600;2022-07-29T07:53:32;24.60;99.90
20370;DHT22;10344;47.592;9.600;2022-07-29T07:55:58;24.90;99.90
20370;DHT22;10344;47.592;9.600;2022-07-29T07:58:24;25.00;99.90
20370;DHT22;10344;47.592;9.600;2022-07-29T08:00:49;24.70;99.90
20370;DHT22;10344;47.592;9.600;2022-07-29T08:03:15;24.60;99.90
20370;DHT22;10344;47.592;9.600;2022-07-29T08:05:40;24.60;99.90
20370;DHT22;10344;47.592;9.600;2022-07-29T08:08:06;24.60;99.90
20370;DHT22;10344;47.592;9.600;2022-07-29T08:10:32;24.50;99.90
20370;DHT22;10344;47.592;9.600;2022-07-29T08:13:16;24.50;99.90
20370;DHT22;10344;47.592;9.600;2022-07-29T08:15:42;24.40;99.90
20370;DHT22;10344;47.592;9.600;2022-07-29T08:18:08;24.20;99.90
20370;DHT22;10344;47.592;9.600;2022-07-29T08:20:35;24.10;99.90
20370;DHT22;10344;47.592;9.600;2022-07-29T08:23:05;24.00;99.90
20370;DHT22;10344;47.592;9.600;2022-07-29T08:25:41;24.00;99.90
20370;DHT22;10344;47.592;9.600;2022-07-29T08:28:08;23.90;99.90
20370;DHT22;10344;47.592;9.600;2022-07-29T08:30:34;23.90;99.90
20370;DHT22;10344;47.592;9.600;2022-07-29T08:33:02;24.10;99.90
20370;DHT22;10344;47.592;9.600;2022-07-29T08:35:28;24.00;99.90
20370;DHT22;10344;47.592;9.600;2022-07-29T08:37:54;24.00;99.90
20370;DHT22;10344;47.592;9.600;2022-07-29T08:40:24;24.20;99.90
20370;DHT22;10344;47.592;9.600;2022-07-29T08:42:53;24.40;99.90
20370;DHT22;10344;47.592;9.600;2022-07-29T08:45:20;24.50;99.90
20370;DHT22;10344;47.592;9.600;2022-07-29T08:47:47;24.50;99.90
20370;DHT22;10344;47.592;9.600;2022-07-29T08:50:12;24.60;99.90
20370;DHT22;10344;47.592;9.600;2022-07-29T08:52:40;24.70;99.90
20370;DHT22;10344;47.592;9.600;2022-07-29T08:55:09;24.70;99.90
20370;DHT22;10344;47.592;9.600;2022-07-29T08:57:36;24.60;99.90
20370;DHT22;10344;47.592;9.600;2022-07-29T09:00:05;24.50;99.90
20370;DHT22;10344;47.592;9.600;2022-07-29T09:02:35;24.30;99.90
20370;DHT22;10344;47.592;9.600;2022-07-29T09:05:05;24.10;99.90
20370;DHT22;10344;47.592;9.600;2022-07-29T09:07:31;24.00;99.90
20370;DHT22;10344;47.592;9.600;2022-07-29T09:10:08;23.90;99.90
20370;DHT22;10344;47.592;9.600;2022-07-29T09:12:35;23.90;99.90
20370;DHT22;10344;47.592;9.600;2022-07-29T09:15:00;23.70;99.90
20370;DHT22;10344;47.592;9.600;2022-07-29T09:17:43;23.70;99.90
20370;DHT22;10344;47.592;9.600;2022-07-29T09:20:11;23.70;99.90
20370;DHT22;10344;47.592;9.600;2022-07-29T09:22:37;23.90;99.90
20370;DHT22;10344;47.592;9.600;2022-07-29T09:25:03;23.80;99.90
20370;DHT22;10344;47.592;9.600;2022-07-29T09:27:29;23.70;99.90
20370;DHT22;10344;47.592;9.600;2022-07-29T09:30:03;23.50;99.90
20370;DHT22;10344;47.592;9.600;2022-07-29T09:32:30;23.30;99.90
20370;DHT22;10344;47.592;9.600;2022-07-29T09:37:41;23.20;99.90
20370;DHT22;10344;47.592;9.600;2022-07-29T09:40:27;23.00;99.90
20370;DHT22;10344;47.592;9.600;2022-07-29T09:42:53;22.70;99.90
20370;DHT22;10344;47.592;9.600;2022-07-29T09:45:32;22.70;99.90
20370;DHT22;10344;47.592;9.600;2022-07-29T09:48:17;22.50;99.90
20370;DHT22;10344;47.592;9.600;2022-07-29T09:50:44;22.50;99.90
20370;DHT22;10344;47.592;9.600;2022-07-29T09:53:12;22.40;99.90
20370;DHT22;10344;47.592;9.600;2022-07-29T09:55:56;22.30;99.90
20370;DHT22;10344;47.592;9.600;2022-07-29T09:58:23;22.10;99.90
20370;DHT22;10344;47.592;9.600;2022-07-29T10:00:50;22.00;99.90
20370;DHT22;10344;47.592;9.600;2022-07-29T10:03:16;21.90;99.90
20370;DHT22;10344;47.592;9.600;2022-07-29T10:05:43;21.60;99.90
20370;DHT22;10344;47.592;9.600;2022-07-29T10:08:10;21.40;99.90
20370;DHT22;10344;47.592;9.600;2022-07-29T10:10:39;21.30;99.90
20370;DHT22;10344;47.592;9.600;2022-07-29T10:13:25;21.20;99.90
20370;DHT22;10344;47.592;9.600;2022-07-29T10:15:51;21.20;99.90
20370;DHT22;10344;47.592;9.600;2022-07-29T10:18:17;21.10;99.90
20370;DHT22;10344;47.592;9.600;2022-07-29T10:20:45;21.20;99.90
20370;DHT22;10344;47.592;9.600;2022-07-29T10:23:10;21.20;99.90
20370;DHT22;10344;47.592;9.600;2022-07-29T10:25:40;21.10;99.90
20370;DHT22;10344;47.592;9.600;2022-07-29T10:28:29;21.10;99.90
20370;DHT22;10344;47.592;9.600;2022-07-29T10:31:01;21.00;99.90
20370;DHT22;10344;47.592;9.600;2022-07-29T10:33:51;21.00;99.90
20370;DHT22;10344;47.592;9.600;2022-07-29T10:44:22;20.90;99.90
20370;DHT22;10344;47.592;9.600;2022-07-29T10:46:49;21.00;99.90
20370;DHT22;10344;47.592;9.600;2022-07-29T10:49:36;21.00;99.90
20370;DHT22;10344;47.592;9.600;2022-07-29T10:52:09;21.00;99.90
20370;DHT22;10344;47.592;9.600;2022-07-29T10:54:55;21.10;99.90
20370;DHT22;10344;47.592;9.600;2022-07-29T10:57:30;21.20;99.90
20370;DHT22;10344;47.592;9.600;2022-07-29T11:05:12;22.30;99.90
20370;DHT22;10344;47.592;9.600;2022-07-29T11:08:16;22.90;99.90
20370;DHT22;10344;47.592;9.600;2022-07-29T11:10:49;23.40;99.90
20370;DHT22;10344;47.592;9.600;2022-07-29T11:16:09;23.70;99.90
20370;DHT22;10344;47.592;9.600;2022-07-29T11:18:34;23.50;99.90
20370;DHT22;10344;47.592;9.600;2022-07-29T11:21:00;23.50;99.90
20370;DHT22;10344;47.592;9.600;2022-07-29T11:23:29;23.40;99.90
20370;DHT22;10344;47.592;9.600;2022-07-29T11:26:25;23.40;99.90
20370;DHT22;10344;47.592;9.600;2022-07-29T11:31:48;23.40;99.90
20370;DHT22;10344;47.592;9.600;2022-07-29T11:37:19;23.40;99.90
20370;DHT22;10344;47.592;9.600;2022-07-29T11:45:06;23.30;99.90
20370;DHT22;10344;47.592;9.600;2022-07-29T11:47:37;23.30;99.90
20370;DHT22;10344;47.592;9.600;2022-07-29T11:50:06;23.30;99.90
20370;DHT22;10344;47.592;9.600;2022-07-29T11:52:34;23.40;99.90
20370;DHT22;10344;47.592;9.600;2022-07-29T11:55:04;23.60;99.90
20370;DHT22;10344;47.592;9.600;2022-07-29T11:57:34;23.60;99.90
20370;DHT22;10344;47.592;9.600;2022-07-29T12:00:04;23.70;99.90
20370;DHT22;10344;47.592;9.600;2022-07-29T12:02:42;23.80;99.90
20370;DHT22;10344;47.592;9.600;2022-07-29T12:05:09;24.10;99.90
20370;DHT22;10344;47.592;9.600;2022-07-29T12:07:36;24.70;99.90
20370;DHT22;10344;47.592;9.600;2022-07-29T12:10:04;24.90;99.90
20370;DHT22;10344;47.592;9.600;2022-07-29T12:12:30;25.10;99.90
20370;DHT22;10344;47.592;9.600;2022-07-29T12:14:55;25.20;99.90
20370;DHT22;10344;47.592;9.600;2022-07-29T12:17:31;25.20;99.90
20370;DHT22;10344;47.592;9.600;2022-07-29T12:20:02;25.00;99.90
20370;DHT22;10344;47.592;9.600;2022-07-29T12:22:41;24.80;99.90
20370;DHT22;10344;47.592;9.600;2022-07-29T12:25:13;24.70;99.90
20370;DHT22;10344;47.592;9.600;2022-07-29T12:27:41;24.60;99.90
20370;DHT22;10344;47.592;9.600;2022-07-29T12:30:13;24.50;99.90
20370;DHT22;10344;47.592;9.600;2022-07-29T12:32:47;24.40;99.90
20370;DHT22;10344;47.592;9.600;2022-07-29T12:35:13;24.30;99.90
20370;DHT22;10344;47.592;9.600;2022-07-29T12:37:41;24.30;99.90
20370;DHT22;10344;47.592;9.600;2022-07-29T12:40:08;24.20;99.90
20370;DHT22;10344;47.592;9.600;2022-07-29T12:42:34;24.20;99.90
20370;DHT22;10344;47.592;9.600;2022-07-29T12:45:03;24.30;99.90
20370;DHT22;10344;47.592;9.600;2022-07-29T12:47:30;24.40;99.90
20370;DHT22;10344;47.592;9.600;2022-07-29T12:50:13;24.60;99.90
20370;DHT22;10344;47.592;9.600;2022-07-29T12:52:44;25.00;99.90
20370;DHT22;10344;47.592;9.600;2022-07-29T12:55:10;25.20;99.90
20370;DHT22;10344;47.592;9.600;2022-07-29T12:57:48;25.60;99.90
20370;DHT22;10344;47.592;9.600;2022-07-29T13:00:14;25.80;99.90
20370;DHT22;10344;47.592;9.600;2022-07-29T13:02:42;25.90;99.90
20370;DHT22;10344;47.592;9.600;2022-07-29T13:05:10;25.80;99.90
20370;DHT22;10344;47.592;9.600;2022-07-29T13:07:36;25.60;99.90
20370;DHT22;10344;47.592;9.600;2022-07-29T13:12:38;25.30;99.90
20370;DHT22;10344;47.592;9.600;2022-07-29T13:15:14;25.20;99.90
20370;DHT22;10344;47.592;9.600;2022-07-29T13:17:42;24.90;99.90
20370;DHT22;10344;47.592;9.600;2022-07-29T13:20:10;24.80;99.90
20370;DHT22;10344;47.592;9.600;2022-07-29T13:22:40;24.70;99.90
20370;DHT22;10344;47.592;9.600;2022-07-29T13:25:08;24.60;99.90
20370;DHT22;10344;47.592;9.600;2022-07-29T13:27:35;24.50;99.90
20370;DHT22;10344;47.592;9.600;2022-07-29T13:30:04;24.40;99.90
20370;DHT22;10344;47.592;9.600;2022-07-29T13:32:31;24.50;99.90
20370;DHT22;10344;47.592;9.600;2022-07-29T13:34:59;24.50;99.90
20370;DHT22;10344;47.592;9.600;2022-07-29T13:37:25;24.50;99.90
20370;DHT22;10344;47.592;9.600;2022-07-29T13:39:52;24.40;99.90
20370;DHT22;10344;47.592;9.600;2022-07-29T13:42:19;24.60;99.90
20370;DHT22;10344;47.592;9.600;2022-07-29T13:44:45;24.80;99.90
20370;DHT22;10344;47.592;9.600;2022-07-29T13:47:10;24.90;99.90
20370;DHT22;10344;47.592;9.600;2022-07-29T13:49:36;24.90;99.90
20370;DHT22;10344;47.592;9.600;2022-07-29T13:52:02;25.10;99.90
20370;DHT22;10344;47.592;9.600;2022-07-29T13:54:28;25.20;99.90
20370;DHT22;10344;47.592;9.600;2022-07-29T13:56:54;25.20;99.90
20370;DHT22;10344;47.592;9.600;2022-07-29T13:59:21;25.40;99.90
20370;DHT22;10344;47.592;9.600;2022-07-29T14:01:46;25.50;99.90
20370;DHT22;10344;47.592;9.600;2022-07-29T14:04:13;25.20;99.90
20370;DHT22;10344;47.592;9.600;2022-07-29T14:06:38;25.20;99.90
20370;DHT22;10344;47.592;9.600;2022-07-29T14:09:04;25.20;99.90
20370;DHT22;10344;47.592;9.600;2022-07-29T14:11:32;25.20;99.90
20370;DHT22;10344;47.592;9.600;2022-07-29T14:13:57;25.00;99.90
20370;DHT22;10344;47.592;9.600;2022-07-29T14:16:23;24.80;99.90
20370;DHT22;10344;47.592;9.600;2022-07-29T14:18:49;24.60;99.90
20370;DHT22;10344;47.592;9.600;2022-07-29T14:21:14;24.50;99.90
20370;DHT22;10344;47.592;9.600;2022-07-29T14:23:40;24.40;99.90
20370;DHT22;10344;47.592;9.600;2022-07-29T14:26:06;24.30;99.90
20370;DHT22;10344;47.592;9.600;2022-07-29T14:28:32;24.30;99.90
20370;DHT22;10344;47.592;9.600;2022-07-29T14:31:00;24.30;99.90
20370;DHT22;10344;47.592;9.600;2022-07-29T14:33:25;24.20;99.90
20370;DHT22;10344;47.592;9.600;2022-07-29T14:35:51;24.10;99.90
20370;DHT22;10344;47.592;9.600;2022-07-29T14:38:17;23.90;99.90
20370;DHT22;10344;47.592;9.600;2022-07-29T14:40:44;23.90;99.90
20370;DHT22;10344;47.592;9.600;2022-07-29T14:43:12;23.80;99.90
20370;DHT22;10344;47.592;9.600;2022-07-29T14:45:38;23.70;99.90
20370;DHT22;10344;47.592;9.600;2022-07-29T14:48:03;23.70;99.90
20370;DHT22;10344;47.592;9.600;2022-07-29T14:50:29;23.60;99.90
20370;DHT22;10344;47.592;9.600;2022-07-29T14:52:54;23.50;99.90
20370;DHT22;10344;47.592;9.600;2022-07-29T14:55:20;23.40;99.90
20370;DHT22;10344;47.592;9.600;2022-07-29T14:57:46;23.30;99.90
20370;DHT22;10344;47.592;9.600;2022-07-29T15:00:12;23.30;99.90
20370;DHT22;10344;47.592;9.600;2022-07-29T15:02:38;23.30;99.90
20370;DHT22;10344;47.592;9.600;2022-07-29T15:05:06;23.30;99.90
20370;DHT22;10344;47.592;9.600;2022-07-29T15:07:34;23.30;99.90
20370;DHT22;10344;47.592;9.600;2022-07-29T15:09:59;23.30;99.90
20370;DHT22;10344;47.592;9.600;2022-07-29T15:12:25;23.30;99.90
20370;DHT22;10344;47.592;9.600;2022-07-29T15:14:50;23.20;99.90
20370;DHT22;10344;47.592;9.600;2022-07-29T15:17:16;23.20;99.90
20370;DHT22;10344;47.592;9.600;2022-07-29T15:19:42;23.00;99.90
20370;DHT22;10344;47.592;9.600;2022-07-29T15:22:07;23.00;99.90
20370;DHT22;10344;47.592;9.600;2022-07-29T15:24:33;22.90;99.90
20370;DHT22;10344;47.592;9.600;2022-07-29T15:26:59;22.80;99.90
20370;DHT22;10344;47.592;9.600;2022-07-29T15:29:27;22.80;99.90
20370;DHT22;10344;47.592;9.600;2022-07-29T15:31:52;22.80;99.90
20370;DHT22;10344;47.592;9.600;2022-07-29T15:34:18;22.70;99.90
20370;DHT22;10344;47.592;9.600;2022-07-29T15:36:46;22.70;99.90
20370;DHT22;10344;47.592;9.600;2022-07-29T15:39:11;22.60;99.90
20370;DHT22;10344;47.592;9.600;2022-07-29T15:41:37;22.50;99.90
20370;DHT22;10344;47.592;9.600;2022-07-29T15:44:03;22.40;99.90
20370;DHT22;10344;47.592;9.600;2022-07-29T15:46:28;22.30;99.90
20370;DHT22;10344;47.592;9.600;2022-07-29T15:49:12;22.30;99.90
20370;DHT22;10344;47.592;9.600;2022-07-29T15:51:38;22.20;99.90
20370;DHT22;10344;47.592;9.600;2022-07-29T15:54:04;22.10;99.90
20370;DHT22;10344;47.592;9.600;2022-07-29T15:56:32;22.00;99.90
20370;DHT22;10344;47.592;9.600;2022-07-29T15:58:58;21.90;99.90
20370;DHT22;10344;47.592;9.600;2022-07-29T16:01:24;21.80;99.90
20370;DHT22;10344;47.592;9.600;2022-07-29T16:03:50;21.80;99.90
20370;DHT22;10344;47.592;9.600;2022-07-29T16:06:16;21.90;99.90
20370;DHT22;10344;47.592;9.600;2022-07-29T16:08:41;21.80;99.90
20370;DHT22;10344;47.592;9.600;2022-07-29T16:11:07;21.80;99.90
20370;DHT22;10344;47.592;9.600;2022-07-29T16:13:33;21.70;99.90
20370;DHT22;10344;47.592;9.600;2022-07-29T16:15:58;21.70;99.90
20370;DHT22;10344;47.592;9.600;2022-07-29T16:18:24;21.60;99.90
20370;DHT22;10344;47.592;9.600;2022-07-29T16:20:51;21.50;99.90
20370;DHT22;10344;47.592;9.600;2022-07-29T16:23:19;21.50;99.90
20370;DHT22;10344;47.592;9.600;2022-07-29T16:25:44;21.50;99.90
20370;DHT22;10344;47.592;9.600;2022-07-29T16:28:12;21.40;99.90
20370;DHT22;10344;47.592;9.600;2022-07-29T16:30:37;21.40;99.90